createdAt,value
2019-06-15T00:00:36.523Z,81.24
2019-06-15T00:01:36.520Z,81.54
2019-06-15T00:02:36.500Z,81.14
2019-06-15T00:03:36.505Z,81.34
2019-06-15T00:04:36.525Z,81.74
2019-06-15T00:05:36.465Z,81.74
2019-06-15T00:06:36.457Z,81.34
2019-06-15T00:07:36.442Z,81.04
2019-06-15T00:08:36.434Z,81.78
2019-06-15T00:09:36.433Z,81.18
2019-06-15T00:10:36.435Z,82.18
2019-06-15T00:11:36.402Z,83.09
2019-06-15T00:12:36.391Z,82.28
2019-06-15T00:13:36.378Z,83.29
2019-06-15T00:14:36.383Z,83.18
2019-06-15T00:15:36.354Z,83.39
2019-06-15T00:16:36.370Z,83.79
2019-06-15T00:17:36.336Z,83.89
2019-06-15T00:18:36.335Z,84.69
2019-06-15T00:19:36.311Z,84.69
2019-06-15T00:20:36.299Z,85.10
2019-06-15T00:21:36.293Z,84.69
2019-06-15T00:22:36.293Z,83.89
2019-06-15T00:23:36.278Z,83.09
2019-06-15T00:24:36.263Z,83.39
2019-06-15T00:25:36.244Z,84.69
2019-06-15T00:26:36.232Z,84.63
2019-06-15T00:27:36.222Z,84.83
2019-06-15T00:28:36.265Z,85.33
2019-06-15T00:29:36.201Z,86.24
2019-06-15T00:30:36.194Z,86.94
2019-06-15T00:31:36.179Z,87.49
2019-06-15T00:32:36.167Z,86.88
2019-06-15T00:33:36.173Z,86.88
2019-06-15T00:34:36.188Z,86.68
2019-06-15T00:35:36.135Z,86.99
2019-06-15T00:36:36.122Z,87.04
2019-06-15T00:37:36.118Z,87.59
2019-06-15T00:38:36.101Z,88.09
2019-06-15T00:39:36.114Z,87.99
2019-06-15T00:40:36.104Z,87.99
2019-06-15T00:41:36.068Z,87.99
2019-06-15T00:42:36.056Z,87.79
2019-06-15T00:43:36.045Z,88.09
2019-06-15T00:44:36.043Z,87.69
2019-06-15T00:45:36.043Z,87.49
2019-06-15T00:46:36.043Z,87.29
2019-06-15T00:47:36.001Z,87.89
2019-06-15T00:48:35.990Z,87.29
2019-06-15T00:49:35.979Z,87.99
2019-06-15T00:50:35.974Z,87.99
2019-06-15T00:51:35.971Z,89.00
2019-06-15T00:52:35.961Z,88.70
2019-06-15T00:53:35.947Z,88.70
2019-06-15T00:54:47.358Z,89.20
2019-06-15T00:55:36.917Z,88.79
2019-06-15T00:56:35.902Z,89.30
2019-06-15T00:57:35.903Z,88.79
2019-06-15T00:58:35.894Z,89.30
2019-06-15T00:59:35.872Z,89.30
2019-06-15T01:00:35.896Z,88.90
2019-06-15T01:01:35.850Z,89.20
2019-06-15T01:02:35.855Z,88.79
2019-06-15T01:03:35.856Z,89.00
2019-06-15T01:04:35.843Z,89.10
2019-06-15T01:05:35.817Z,88.59
2019-06-15T01:06:35.792Z,88.59
2019-06-15T01:07:35.785Z,89.10
2019-06-15T01:08:35.787Z,89.10
2019-06-15T01:09:35.769Z,88.59
2019-06-15T01:10:35.765Z,88.79
2019-06-15T01:11:35.760Z,89.50
2019-06-15T01:12:35.727Z,89.40
2019-06-15T01:13:35.715Z,89.00
2019-06-15T01:14:35.704Z,88.90
2019-06-15T01:15:35.693Z,88.79
2019-06-15T01:16:35.722Z,89.30
2019-06-15T01:17:35.683Z,89.00
2019-06-15T01:18:35.659Z,88.90
2019-06-15T01:19:35.649Z,89.30
2019-06-15T01:20:35.638Z,89.80
2019-06-15T01:21:35.624Z,90.11
2019-06-15T01:22:35.680Z,90.30
2019-06-15T01:23:35.621Z,89.70
2019-06-15T01:24:35.593Z,90.00
2019-06-15T01:25:35.585Z,90.11
2019-06-15T01:26:35.571Z,89.80
2019-06-15T01:27:35.559Z,89.80
2019-06-15T01:28:35.610Z,89.80
2019-06-15T01:29:35.538Z,89.80
2019-06-15T01:30:35.541Z,89.90
2019-06-15T01:31:35.514Z,90.41
2019-06-15T01:32:35.503Z,90.61
2019-06-15T01:33:35.492Z,89.90
2019-06-15T01:34:35.513Z,90.50
2019-06-15T01:35:35.490Z,90.20
2019-06-15T01:36:35.463Z,90.70
2019-06-15T01:37:35.448Z,91.01
2019-06-15T01:38:35.437Z,91.01
2019-06-15T01:39:35.485Z,90.30
2019-06-15T01:40:35.433Z,90.20
2019-06-15T01:41:35.418Z,90.20
2019-06-15T01:42:35.392Z,91.01
2019-06-15T01:43:35.384Z,90.91
2019-06-15T01:44:35.374Z,90.91
2019-06-15T01:45:35.362Z,92.26
2019-06-15T01:46:35.390Z,91.86
2019-06-15T01:47:35.381Z,92.06
2019-06-15T01:48:35.339Z,92.16
2019-06-15T01:49:35.317Z,92.66
2019-06-15T01:50:35.304Z,92.20
2019-06-15T01:51:35.293Z,92.56
2019-06-15T01:52:35.339Z,92.46
2019-06-15T01:53:35.272Z,92.46
2019-06-15T01:54:35.260Z,92.26
2019-06-15T01:55:35.248Z,92.56
2019-06-15T01:56:35.238Z,92.46
2019-06-15T01:57:35.242Z,92.72
2019-06-15T01:58:35.317Z,93.07
2019-06-15T01:59:35.205Z,93.37
2019-06-15T02:00:35.206Z,93.66
2019-06-15T02:01:35.183Z,93.07
2019-06-15T02:02:35.188Z,92.66
2019-06-15T02:03:35.175Z,92.86
2019-06-15T02:04:35.177Z,92.56
2019-06-15T02:05:35.162Z,92.86
2019-06-15T02:06:35.128Z,92.66
2019-06-15T02:07:35.126Z,93.16
2019-06-15T02:08:35.121Z,92.46
2019-06-15T02:09:35.094Z,93.16
2019-06-15T02:10:35.095Z,93.46
2019-06-15T02:11:35.102Z,92.76
2019-06-15T02:12:35.065Z,92.66
2019-06-15T02:13:35.069Z,92.76
2019-06-15T02:14:35.040Z,92.50
2019-06-15T02:15:35.031Z,92.66
2019-06-15T02:16:35.017Z,92.76
2019-06-15T02:17:35.047Z,92.46
2019-06-15T02:18:34.994Z,92.56
2019-06-15T02:19:34.997Z,92.26
2019-06-15T02:20:34.971Z,91.80
2019-06-15T02:21:34.960Z,92.46
2019-06-15T02:22:34.950Z,92.60
2019-06-15T02:23:34.957Z,92.30
2019-06-15T02:24:34.943Z,92.20
2019-06-15T02:25:36.264Z,92.20
2019-06-15T02:26:34.904Z,92.06
2019-06-15T02:27:34.896Z,92.56
2019-06-15T02:28:34.884Z,92.76
2019-06-15T02:29:34.908Z,92.60
2019-06-15T02:30:34.878Z,92.96
2019-06-15T02:31:34.853Z,92.91
2019-06-15T02:32:34.852Z,92.96
2019-06-15T02:33:34.828Z,92.71
2019-06-15T02:34:34.828Z,92.80
2019-06-15T02:35:34.826Z,92.40
2019-06-15T02:36:34.814Z,92.20
2019-06-15T02:37:34.787Z,91.80
2019-06-15T02:38:34.774Z,92.36
2019-06-15T02:39:34.763Z,92.30
2019-06-15T02:40:34.750Z,91.70
2019-06-15T02:41:34.794Z,91.90
2019-06-15T02:42:34.744Z,91.90
2019-06-15T02:43:34.716Z,92.30
2019-06-15T02:44:34.704Z,92.40
2019-06-15T02:45:34.695Z,92.50
2019-06-15T02:46:34.693Z,92.50
2019-06-15T02:47:34.713Z,92.40
2019-06-15T02:48:34.663Z,92.30
2019-06-15T02:49:34.651Z,92.60
2019-06-15T02:50:34.642Z,93.11
2019-06-15T02:51:34.630Z,92.80
2019-06-15T02:52:34.619Z,92.91
2019-06-15T02:53:34.649Z,93.15
2019-06-15T02:54:34.593Z,93.01
2019-06-15T02:55:34.584Z,93.91
2019-06-15T02:56:34.571Z,93.71
2019-06-15T02:57:34.564Z,93.51
2019-06-15T02:58:34.592Z,93.66
2019-06-15T02:59:34.564Z,93.71
2019-06-15T03:00:34.543Z,93.81
2019-06-15T03:01:34.517Z,93.96
2019-06-15T03:02:34.513Z,94.06
2019-06-15T03:03:34.496Z,94.01
2019-06-15T03:04:34.500Z,94.12
2019-06-15T03:05:34.493Z,94.12
2019-06-15T03:06:34.530Z,94.12
2019-06-15T03:07:34.453Z,94.12
2019-06-15T03:08:34.451Z,94.42
2019-06-15T03:09:34.429Z,94.12
2019-06-15T03:10:34.429Z,94.01
2019-06-15T03:11:34.428Z,94.62
2019-06-15T03:12:34.396Z,94.56
2019-06-15T03:13:34.389Z,94.32
2019-06-15T03:14:34.377Z,94.32
2019-06-15T03:15:34.380Z,94.52
2019-06-15T03:16:34.354Z,94.42
2019-06-15T03:17:34.376Z,94.32
2019-06-15T03:18:34.328Z,94.72
2019-06-15T03:19:34.319Z,94.01
2019-06-15T03:20:34.308Z,94.52
2019-06-15T03:21:34.308Z,94.52
2019-06-15T03:22:34.285Z,94.72
2019-06-15T03:23:34.292Z,93.71
2019-06-15T03:24:34.266Z,94.72
2019-06-15T03:25:34.252Z,94.32
2019-06-15T03:26:34.253Z,93.71
2019-06-15T03:27:34.230Z,93.71
2019-06-15T03:28:34.218Z,93.71
2019-06-15T03:29:34.239Z,93.61
2019-06-15T03:30:34.208Z,93.61
2019-06-15T03:31:34.185Z,93.76
2019-06-15T03:32:34.198Z,93.71
2019-06-15T03:33:34.164Z,93.61
2019-06-15T03:34:34.169Z,93.66
2019-06-15T03:35:34.170Z,93.81
2019-06-15T03:36:34.129Z,93.91
2019-06-15T03:37:34.119Z,93.71
2019-06-15T03:38:34.107Z,93.41
2019-06-15T03:39:34.115Z,93.51
2019-06-15T03:40:34.085Z,93.31
2019-06-15T03:41:34.114Z,93.91
2019-06-15T03:42:34.067Z,93.41
2019-06-15T03:43:34.052Z,93.41
2019-06-15T03:44:34.082Z,93.51
2019-06-15T03:45:34.044Z,93.61
2019-06-15T03:46:34.019Z,94.01
2019-06-15T03:47:34.032Z,93.61
2019-06-15T03:48:33.995Z,93.61
2019-06-15T03:49:33.989Z,93.91
2019-06-15T03:50:33.998Z,93.71
2019-06-15T03:51:33.969Z,93.61
2019-06-15T03:52:33.956Z,93.61
2019-06-15T03:53:33.976Z,93.61
2019-06-15T03:54:33.935Z,93.71
2019-06-15T03:55:33.918Z,93.81
2019-06-15T03:56:33.929Z,93.51
2019-06-15T03:57:33.901Z,93.35
2019-06-15T03:58:33.887Z,93.31
2019-06-15T03:59:33.917Z,93.86
2019-06-15T04:00:33.867Z,94.32
2019-06-15T04:01:33.855Z,94.87
2019-06-15T04:02:33.859Z,94.36
2019-06-15T04:03:33.834Z,94.46
2019-06-15T04:04:33.821Z,94.56
2019-06-15T04:05:33.852Z,94.36
2019-06-15T04:06:33.798Z,94.67
2019-06-15T04:07:33.786Z,94.56
2019-06-15T04:08:33.788Z,94.56
2019-06-15T04:09:33.764Z,94.76
2019-06-15T04:10:33.753Z,94.46
2019-06-15T04:11:33.763Z,94.16
2019-06-15T04:12:33.736Z,94.36
2019-06-15T04:13:33.737Z,94.16
2019-06-15T04:14:33.708Z,94.26
2019-06-15T04:15:33.702Z,94.06
2019-06-15T04:16:33.686Z,94.36
2019-06-15T04:17:33.697Z,94.06
2019-06-15T04:18:33.684Z,94.56
2019-06-15T04:19:33.653Z,94.81
2019-06-15T04:20:33.641Z,94.46
2019-06-15T04:21:33.631Z,95.07
2019-06-15T04:22:33.622Z,94.96
2019-06-15T04:23:33.629Z,95.07
2019-06-15T04:24:33.622Z,95.67
2019-06-15T04:25:33.586Z,95.67
2019-06-15T04:26:36.233Z,95.17
2019-06-15T04:27:33.566Z,94.67
2019-06-15T04:28:33.558Z,94.72
2019-06-15T04:29:33.570Z,94.42
2019-06-15T04:30:33.552Z,95.02
2019-06-15T04:31:33.520Z,94.52
2019-06-15T04:32:33.510Z,94.42
2019-06-15T04:33:33.499Z,94.52
2019-06-15T04:34:33.486Z,94.32
2019-06-15T04:35:33.512Z,94.32
2019-06-15T04:36:33.468Z,94.42
2019-06-15T04:37:33.454Z,94.32
2019-06-15T04:38:33.449Z,94.52
2019-06-15T04:39:33.433Z,94.62
2019-06-15T04:40:33.424Z,94.52
2019-06-15T04:41:33.466Z,94.82
2019-06-15T04:42:33.403Z,94.27
2019-06-15T04:43:33.397Z,94.47
2019-06-15T04:44:33.381Z,94.47
2019-06-15T04:45:33.365Z,94.27
2019-06-15T04:46:33.356Z,94.47
2019-06-15T04:47:33.382Z,94.57
2019-06-15T04:48:33.331Z,93.66
2019-06-15T04:49:33.322Z,94.27
2019-06-15T04:50:33.309Z,93.87
2019-06-15T04:51:33.298Z,93.46
2019-06-15T04:52:33.311Z,93.57
2019-06-15T04:53:33.295Z,93.77
2019-06-15T04:54:33.267Z,93.66
2019-06-15T04:55:33.253Z,93.62
2019-06-15T04:56:33.244Z,94.02
2019-06-15T04:57:33.244Z,94.17
2019-06-15T04:58:33.233Z,94.13
2019-06-15T04:59:33.229Z,93.82
2019-06-15T05:00:33.199Z,93.52
2019-06-15T05:01:33.187Z,93.62
2019-06-15T05:02:33.176Z,93.82
2019-06-15T05:03:33.184Z,94.23
2019-06-15T05:04:33.180Z,94.17
2019-06-15T05:05:33.201Z,94.17
2019-06-15T05:06:33.134Z,94.07
2019-06-15T05:07:33.121Z,94.37
2019-06-15T05:08:33.111Z,94.33
2019-06-15T05:09:33.111Z,94.37
2019-06-15T05:10:33.089Z,94.53
2019-06-15T05:11:33.105Z,94.27
2019-06-15T05:12:33.068Z,94.37
2019-06-15T05:13:33.060Z,94.37
2019-06-15T05:14:33.058Z,94.37
2019-06-15T05:15:33.035Z,94.87
2019-06-15T05:16:33.033Z,95.02
2019-06-15T05:17:33.029Z,94.82
2019-06-15T05:18:33.000Z,94.72
2019-06-15T05:19:32.988Z,95.53
2019-06-15T05:20:32.993Z,95.32
2019-06-15T05:21:32.968Z,95.27
2019-06-15T05:22:32.956Z,95.37
2019-06-15T05:23:32.977Z,95.57
2019-06-15T05:24:32.933Z,96.12
2019-06-15T05:25:32.921Z,96.12
2019-06-15T05:26:32.923Z,96.01
2019-06-15T05:27:32.901Z,96.12
2019-06-15T05:28:32.892Z,96.83
2019-06-15T05:29:32.897Z,96.12
2019-06-15T05:30:32.908Z,96.37
2019-06-15T05:31:32.883Z,95.97
2019-06-15T05:32:32.855Z,96.08
2019-06-15T05:33:32.848Z,96.78
2019-06-15T05:34:32.825Z,96.08
2019-06-15T05:35:32.810Z,96.63
2019-06-15T05:36:32.844Z,95.93
2019-06-15T05:37:32.792Z,95.93
2019-06-15T05:38:32.793Z,96.23
2019-06-15T05:39:32.813Z,95.47
2019-06-15T05:40:32.771Z,95.93
2019-06-15T05:41:32.745Z,96.17
2019-06-15T05:42:32.770Z,95.12
2019-06-15T05:43:32.734Z,95.32
2019-06-15T05:44:32.711Z,96.03
2019-06-15T05:45:32.710Z,95.22
2019-06-15T05:46:32.714Z,95.12
2019-06-15T05:47:32.722Z,95.53
2019-06-15T05:48:32.686Z,95.53
2019-06-15T05:49:32.679Z,95.62
2019-06-15T05:50:32.651Z,95.32
2019-06-15T05:51:32.635Z,95.53
2019-06-15T05:52:32.628Z,95.62
2019-06-15T05:53:32.635Z,95.62
2019-06-15T05:54:32.630Z,95.42
2019-06-15T05:55:32.588Z,95.22
2019-06-15T05:56:33.523Z,95.32
2019-06-15T05:57:32.567Z,95.22
2019-06-15T05:58:32.560Z,95.42
2019-06-15T05:59:32.586Z,95.32
2019-06-15T06:00:32.546Z,95.42
2019-06-15T06:01:32.525Z,95.22
2019-06-15T06:02:32.513Z,95.22
2019-06-15T06:03:32.504Z,95.62
2019-06-15T06:04:32.502Z,95.73
2019-06-15T06:05:32.527Z,96.23
2019-06-15T06:06:32.470Z,96.08
2019-06-15T06:07:32.465Z,95.97
2019-06-15T06:08:32.458Z,95.53
2019-06-15T06:09:32.439Z,95.77
2019-06-15T06:10:32.427Z,95.87
2019-06-15T06:11:32.463Z,94.87
2019-06-15T06:12:32.401Z,95.17
2019-06-15T06:13:32.394Z,96.17
2019-06-15T06:14:32.381Z,95.27
2019-06-15T06:15:32.375Z,95.27
2019-06-15T06:16:32.373Z,95.21
2019-06-15T06:17:32.392Z,95.57
2019-06-15T06:18:32.380Z,95.67
2019-06-15T06:19:32.322Z,95.97
2019-06-15T06:20:32.318Z,95.22
2019-06-15T06:21:32.313Z,96.37
2019-06-15T06:22:32.290Z,95.42
2019-06-15T06:23:32.319Z,94.82
2019-06-15T06:24:32.269Z,94.42
2019-06-15T06:25:32.273Z,94.12
2019-06-15T06:26:32.261Z,94.16
2019-06-15T06:27:36.473Z,94.76
2019-06-15T06:28:32.228Z,94.46
2019-06-15T06:29:32.261Z,94.26
2019-06-15T06:30:32.232Z,94.46
2019-06-15T06:31:32.202Z,94.46
2019-06-15T06:32:32.193Z,94.76
2019-06-15T06:33:32.166Z,94.56
2019-06-15T06:34:32.272Z,94.56
2019-06-15T06:35:32.145Z,94.56
2019-06-15T06:36:32.185Z,94.87
2019-06-15T06:37:32.126Z,94.26
2019-06-15T06:38:32.127Z,93.96
2019-06-15T06:39:32.106Z,94.16
2019-06-15T06:40:32.098Z,94.36
2019-06-15T06:41:32.093Z,94.56
2019-06-15T06:42:32.088Z,94.16
2019-06-15T06:43:32.059Z,93.96
2019-06-15T06:44:32.051Z,93.15
2019-06-15T06:45:32.051Z,93.05
2019-06-15T06:46:32.023Z,92.69
2019-06-15T06:47:32.025Z,92.79
2019-06-15T06:48:32.029Z,92.90
2019-06-15T06:49:31.993Z,93.19
2019-06-15T06:50:31.980Z,93.70
2019-06-15T06:51:31.971Z,93.70
2019-06-15T06:52:31.977Z,93.70
2019-06-15T06:53:31.948Z,93.76
2019-06-15T06:54:31.956Z,92.75
2019-06-15T06:55:31.924Z,93.60
2019-06-15T06:56:31.916Z,93.55
2019-06-15T06:57:31.903Z,93.15
2019-06-15T06:58:31.912Z,92.85
2019-06-15T06:59:31.885Z,92.65
2019-06-15T07:00:31.899Z,92.25
2019-06-15T07:01:31.860Z,92.45
2019-06-15T07:02:31.848Z,92.25
2019-06-15T07:03:31.837Z,92.55
2019-06-15T07:04:31.837Z,92.59
2019-06-15T07:05:31.833Z,92.65
2019-06-15T07:06:31.803Z,92.55
2019-06-15T07:07:31.795Z,92.39
2019-06-15T07:08:31.783Z,92.65
2019-06-15T07:09:31.793Z,92.19
2019-06-15T07:10:31.769Z,92.99
2019-06-15T07:11:31.773Z,93.30
2019-06-15T07:12:31.735Z,93.26
2019-06-15T07:13:31.724Z,92.90
2019-06-15T07:14:31.712Z,92.75
2019-06-15T07:15:31.734Z,92.85
2019-06-15T07:16:31.697Z,92.55
2019-06-15T07:17:31.734Z,92.49
2019-06-15T07:18:31.673Z,92.69
2019-06-15T07:19:31.661Z,92.65
2019-06-15T07:20:31.650Z,92.79
2019-06-15T07:21:31.653Z,92.90
2019-06-15T07:22:31.624Z,92.19
2019-06-15T07:23:32.111Z,92.90
2019-06-15T07:24:31.609Z,92.69
2019-06-15T07:25:31.590Z,93.10
2019-06-15T07:26:31.587Z,92.83
2019-06-15T07:27:31.583Z,92.94
2019-06-15T07:28:31.564Z,93.74
2019-06-15T07:29:31.603Z,93.74
2019-06-15T07:30:31.553Z,93.54
2019-06-15T07:31:31.528Z,93.24
2019-06-15T07:32:31.516Z,93.14
2019-06-15T07:33:31.518Z,92.63
2019-06-15T07:34:31.490Z,93.04
2019-06-15T07:35:31.501Z,92.63
2019-06-15T07:36:31.470Z,92.74
2019-06-15T07:37:31.457Z,92.74
2019-06-15T07:38:31.446Z,91.33
2019-06-15T07:39:31.449Z,91.02
2019-06-15T07:40:31.436Z,92.33
2019-06-15T07:41:31.440Z,92.09
2019-06-15T07:42:31.413Z,92.33
2019-06-15T07:43:31.407Z,92.03
2019-06-15T07:44:31.394Z,92.13
2019-06-15T07:45:31.368Z,92.03
2019-06-15T07:46:31.360Z,92.23
2019-06-15T07:47:31.387Z,92.18
2019-06-15T07:48:31.339Z,91.87
2019-06-15T07:49:31.328Z,92.47
2019-06-15T07:50:31.315Z,92.63
2019-06-15T07:51:31.301Z,92.68
2019-06-15T07:52:31.308Z,92.38
2019-06-15T07:53:31.309Z,92.58
2019-06-15T07:54:31.285Z,92.78
2019-06-15T07:55:31.279Z,92.78
2019-06-15T07:56:31.282Z,92.68
2019-06-15T07:57:31.237Z,92.38
2019-06-15T07:58:31.230Z,92.43
2019-06-15T07:59:31.262Z,92.78
2019-06-15T08:00:31.204Z,92.74
2019-06-15T08:01:31.207Z,92.98
2019-06-15T08:02:31.243Z,92.68
2019-06-15T08:03:31.193Z,92.68
2019-06-15T08:04:31.163Z,92.47
2019-06-15T08:05:31.182Z,92.38
2019-06-15T08:06:31.141Z,92.88
2019-06-15T08:07:31.130Z,92.58
2019-06-15T08:08:31.118Z,92.38
2019-06-15T08:09:31.117Z,92.78
2019-06-15T08:10:31.091Z,92.78
2019-06-15T08:11:31.108Z,92.68
2019-06-15T08:12:31.070Z,92.68
2019-06-15T08:13:31.077Z,92.78
2019-06-15T08:14:31.048Z,92.88
2019-06-15T08:15:31.051Z,92.78
2019-06-15T08:16:31.026Z,92.27
2019-06-15T08:17:31.037Z,92.78
2019-06-15T08:18:31.008Z,92.07
2019-06-15T08:19:30.994Z,92.58
2019-06-15T08:20:31.001Z,92.33
2019-06-15T08:21:30.992Z,92.33
2019-06-15T08:22:30.964Z,92.74
2019-06-15T08:23:30.982Z,92.33
2019-06-15T08:24:30.941Z,92.74
2019-06-15T08:25:30.926Z,92.74
2019-06-15T08:26:30.928Z,93.14
2019-06-15T08:27:30.905Z,92.74
2019-06-15T08:28:39.928Z,92.43
2019-06-15T08:29:31.917Z,92.23
2019-06-15T08:30:30.878Z,92.39
2019-06-15T08:31:30.861Z,92.69
2019-06-15T08:32:30.874Z,92.54
2019-06-15T08:33:30.840Z,92.69
2019-06-15T08:34:30.834Z,92.59
2019-06-15T08:35:30.863Z,91.89
2019-06-15T08:36:30.805Z,92.59
2019-06-15T08:37:30.795Z,92.49
2019-06-15T08:38:30.788Z,92.59
2019-06-15T08:39:30.772Z,92.85
2019-06-15T08:40:30.775Z,93.05
2019-06-15T08:41:30.788Z,93.86
2019-06-15T08:42:30.787Z,92.65
2019-06-15T08:43:30.729Z,92.75
2019-06-15T08:44:30.715Z,92.09
2019-06-15T08:45:30.707Z,91.28
2019-06-15T08:46:30.720Z,92.19
2019-06-15T08:47:30.686Z,92.39
2019-06-15T08:48:30.697Z,92.09
2019-06-15T08:49:30.663Z,91.99
2019-06-15T08:50:30.654Z,92.19
2019-06-15T08:51:30.640Z,92.29
2019-06-15T08:52:30.647Z,92.29
2019-06-15T08:53:30.617Z,92.49
2019-06-15T08:54:30.694Z,91.99
2019-06-15T08:55:30.630Z,91.89
2019-06-15T08:56:30.586Z,92.09
2019-06-15T08:57:30.629Z,91.89
2019-06-15T08:58:30.563Z,92.29
2019-06-15T08:59:30.551Z,92.79
2019-06-15T09:00:30.539Z,92.59
2019-06-15T09:01:30.541Z,92.69
2019-06-15T09:02:30.516Z,92.69
2019-06-15T09:03:30.518Z,92.69
2019-06-15T09:04:30.494Z,92.94
2019-06-15T09:05:30.501Z,93.19
2019-06-15T09:06:30.510Z,93.70
2019-06-15T09:07:30.520Z,93.70
2019-06-15T09:08:30.464Z,94.10
2019-06-15T09:09:30.442Z,94.10
2019-06-15T09:10:30.444Z,94.00
2019-06-15T09:11:30.420Z,93.90
2019-06-15T09:12:30.410Z,94.00
2019-06-15T09:13:30.417Z,93.90
2019-06-15T09:14:30.410Z,93.70
2019-06-15T09:15:30.378Z,94.00
2019-06-15T09:16:30.363Z,93.90
2019-06-15T09:17:30.367Z,94.00
2019-06-15T09:18:30.343Z,94.31
2019-06-15T09:19:30.364Z,94.20
2019-06-15T09:20:30.334Z,94.31
2019-06-15T09:21:30.330Z,94.20
2019-06-15T09:22:30.297Z,94.20
2019-06-15T09:23:30.297Z,94.51
2019-06-15T09:24:30.273Z,94.60
2019-06-15T09:25:30.321Z,94.81
2019-06-15T09:26:30.250Z,94.46
2019-06-15T09:27:30.245Z,93.35
2019-06-15T09:28:30.285Z,94.36
2019-06-15T09:29:30.223Z,94.52
2019-06-15T09:30:30.206Z,94.52
2019-06-15T09:31:30.227Z,93.51
2019-06-15T09:32:30.188Z,93.97
2019-06-15T09:33:30.175Z,93.51
2019-06-15T09:34:30.163Z,93.51
2019-06-15T09:35:30.162Z,93.46
2019-06-15T09:36:30.143Z,94.17
2019-06-15T09:37:30.196Z,93.57
2019-06-15T09:38:30.120Z,94.02
2019-06-15T09:39:30.108Z,94.53
2019-06-15T09:40:30.098Z,94.23
2019-06-15T09:41:30.099Z,93.02
2019-06-15T09:42:30.087Z,92.32
2019-06-15T09:43:30.089Z,92.22
2019-06-15T09:44:30.053Z,92.07
2019-06-15T09:45:32.951Z,92.27
2019-06-15T09:46:30.047Z,91.02
2019-06-15T09:47:30.034Z,90.02
2019-06-15T09:48:30.024Z,90.22
2019-06-15T09:49:30.035Z,91.08
2019-06-15T09:50:29.984Z,89.67
2019-06-15T09:51:29.975Z,89.17
2019-06-15T09:52:29.962Z,88.67
2019-06-15T09:53:29.960Z,88.57
2019-06-15T09:54:29.955Z,87.96
2019-06-15T09:55:29.969Z,87.96
2019-06-15T09:56:29.920Z,89.22
2019-06-15T09:57:29.906Z,88.81
2019-06-15T09:58:29.901Z,88.91
2019-06-15T09:59:29.896Z,88.91
2019-06-15T10:00:29.887Z,89.11
2019-06-15T10:01:29.892Z,88.81
2019-06-15T10:02:29.871Z,88.81
2019-06-15T10:03:29.841Z,89.46
2019-06-15T10:04:29.839Z,89.56
2019-06-15T10:05:29.866Z,90.26
2019-06-15T10:06:29.806Z,90.56
2019-06-15T10:07:29.797Z,90.32
2019-06-15T10:08:29.796Z,90.72
2019-06-15T10:09:29.775Z,90.02
2019-06-15T10:10:29.763Z,89.31
2019-06-15T10:11:29.768Z,88.91
2019-06-15T10:12:29.741Z,89.92
2019-06-15T10:13:31.514Z,88.37
2019-06-15T10:14:29.718Z,88.07
2019-06-15T10:15:29.709Z,88.97
2019-06-15T10:16:29.699Z,88.83
2019-06-15T10:17:29.724Z,87.58
2019-06-15T10:18:29.711Z,86.74
2019-06-15T10:19:29.699Z,86.69
2019-06-15T10:20:29.651Z,83.69
2019-06-15T10:21:29.642Z,83.95
2019-06-15T10:22:29.630Z,84.65
2019-06-15T10:23:29.629Z,83.05
2019-06-15T10:24:29.611Z,83.95
2019-06-15T10:25:29.627Z,82.35
2019-06-15T10:26:29.586Z,81.88
2019-06-15T10:27:29.578Z,81.79
2019-06-15T10:28:29.588Z,82.59
2019-06-15T10:29:41.523Z,82.39
2019-06-15T10:30:30.545Z,82.59
2019-06-15T10:31:29.579Z,82.35
2019-06-15T10:32:29.519Z,82.24
2019-06-15T10:33:29.510Z,81.55
2019-06-15T10:34:29.524Z,80.54
2019-06-15T10:35:29.488Z,78.94
2019-06-15T10:36:29.482Z,79.60
2019-06-15T10:37:29.477Z,79.97
2019-06-15T10:38:29.455Z,78.99
2019-06-15T10:39:29.443Z,78.89
2019-06-15T10:40:29.445Z,77.66
2019-06-15T10:41:29.421Z,76.76
2019-06-15T10:42:29.413Z,76.35
2019-06-15T10:43:29.424Z,75.76
2019-06-15T10:44:29.389Z,76.09
2019-06-15T10:45:29.379Z,76.93
2019-06-15T10:46:29.382Z,78.33
2019-06-15T10:47:29.355Z,76.23
2019-06-15T10:48:29.346Z,77.03
2019-06-15T10:49:29.358Z,78.63
2019-06-15T10:50:29.328Z,78.23
2019-06-15T10:51:29.325Z,77.43
2019-06-15T10:52:29.302Z,77.56
2019-06-15T10:53:29.307Z,78.06
2019-06-15T10:54:29.280Z,78.20
2019-06-15T10:55:29.298Z,78.80
2019-06-15T10:56:29.260Z,80.80
2019-06-15T10:57:29.261Z,79.34
2019-06-15T10:58:29.254Z,81.24
2019-06-15T10:59:29.228Z,81.35
2019-06-15T11:00:29.213Z,81.15
2019-06-15T11:01:29.212Z,79.78
2019-06-15T11:02:29.197Z,79.18
2019-06-15T11:03:29.194Z,79.54
2019-06-15T11:04:29.169Z,78.24
2019-06-15T11:05:29.161Z,76.40
2019-06-15T11:06:29.148Z,76.00
2019-06-15T11:07:29.173Z,76.06
2019-06-15T11:08:29.138Z,74.83
2019-06-15T11:09:29.132Z,75.43
2019-06-15T11:10:29.121Z,75.39
2019-06-15T11:11:29.093Z,74.85
2019-06-15T11:12:29.081Z,74.62
2019-06-15T11:13:29.109Z,75.02
2019-06-15T11:14:29.060Z,72.96
2019-06-15T11:15:29.063Z,75.02
2019-06-15T11:16:29.037Z,74.12
2019-06-15T11:17:29.033Z,72.72
2019-06-15T11:18:29.017Z,74.22
2019-06-15T11:19:29.061Z,75.18
2019-06-15T11:20:28.997Z,71.52
2019-06-15T11:21:28.982Z,73.09
2019-06-15T11:22:28.984Z,74.49
2019-06-15T11:23:28.977Z,74.39
2019-06-15T11:24:28.951Z,75.09
2019-06-15T11:25:28.986Z,74.16
2019-06-15T11:26:28.929Z,72.42
2019-06-15T11:27:28.935Z,74.32
2019-06-15T11:28:28.914Z,73.42
2019-06-15T11:29:28.896Z,70.95
2019-06-15T11:30:28.900Z,70.95
2019-06-15T11:31:28.911Z,68.63
2019-06-15T11:32:28.865Z,69.66
2019-06-15T11:33:28.854Z,70.36
2019-06-15T11:34:28.841Z,69.99
2019-06-15T11:35:28.829Z,71.69
2019-06-15T11:36:28.846Z,72.16
2019-06-15T11:37:28.841Z,69.79
2019-06-15T11:38:28.800Z,69.82
2019-06-15T11:39:28.789Z,70.06
2019-06-15T11:40:28.776Z,71.56
2019-06-15T11:41:28.766Z,71.09
2019-06-15T11:42:28.770Z,71.80
2019-06-15T11:43:28.770Z,72.93
2019-06-15T11:44:28.785Z,72.03
2019-06-15T11:45:28.722Z,73.19
2019-06-15T11:46:28.712Z,72.16
2019-06-15T11:47:28.720Z,72.42
2019-06-15T11:48:28.696Z,67.89
2019-06-15T11:49:28.696Z,68.36
2019-06-15T11:50:28.669Z,66.39
2019-06-15T11:51:28.655Z,68.06
2019-06-15T11:52:28.646Z,66.83
2019-06-15T11:53:28.648Z,64.83
2019-06-15T11:54:28.634Z,67.53
2019-06-15T11:55:39.170Z,65.83
2019-06-15T11:56:29.600Z,66.06
2019-06-15T11:57:28.591Z,67.06
2019-06-15T11:58:28.579Z,67.43
2019-06-15T11:59:28.585Z,65.83
2019-06-15T12:00:31.525Z,66.43
2019-06-15T12:01:28.586Z,65.16
2019-06-15T12:02:28.536Z,67.26
2019-06-15T12:03:28.527Z,68.26
2019-06-15T12:04:28.520Z,67.66
2019-06-15T12:05:28.517Z,65.96
2019-06-15T12:06:28.492Z,67.59
2019-06-15T12:07:28.516Z,66.63
2019-06-15T12:08:28.471Z,68.09
2019-06-15T12:09:28.474Z,68.19
2019-06-15T12:10:28.467Z,66.36
2019-06-15T12:11:28.442Z,64.39
2019-06-15T12:12:28.436Z,64.19
2019-06-15T12:13:28.450Z,64.49
2019-06-15T12:14:28.408Z,67.43
2019-06-15T12:15:28.397Z,66.93
2019-06-15T12:16:28.404Z,65.99
2019-06-15T12:17:28.375Z,65.19
2019-06-15T12:18:28.362Z,64.62
2019-06-15T12:19:28.392Z,66.22
2019-06-15T12:20:28.344Z,66.13
2019-06-15T12:21:28.344Z,66.09
2019-06-15T12:22:28.317Z,66.86
2019-06-15T12:23:28.307Z,66.06
2019-06-15T12:24:28.298Z,66.06
2019-06-15T12:25:28.312Z,65.86
2019-06-15T12:26:28.299Z,64.49
2019-06-15T12:27:28.264Z,65.39
2019-06-15T12:28:28.267Z,66.13
2019-06-15T12:29:28.243Z,66.42
2019-06-15T12:30:28.230Z,67.13
2019-06-15T12:31:28.266Z,65.55
2019-06-15T12:32:28.213Z,66.28
2019-06-15T12:33:28.210Z,65.99
2019-06-15T12:34:28.201Z,66.09
2019-06-15T12:35:28.235Z,67.76
2019-06-15T12:36:28.180Z,65.72
2019-06-15T12:37:28.182Z,64.12
2019-06-15T12:38:28.143Z,65.09
2019-06-15T12:39:28.134Z,63.96
2019-06-15T12:40:28.144Z,64.03
2019-06-15T12:41:28.113Z,63.20
2019-06-15T12:42:28.109Z,62.20
2019-06-15T12:43:28.138Z,63.73
2019-06-15T12:44:28.079Z,63.73
2019-06-15T12:45:28.082Z,63.80
2019-06-15T12:46:28.058Z,63.97
2019-06-15T12:47:28.046Z,62.07
2019-06-15T12:48:28.048Z,61.41
2019-06-15T12:49:28.038Z,61.87
2019-06-15T12:50:28.016Z,60.88
2019-06-15T12:51:28.003Z,58.88
2019-06-15T12:52:27.993Z,58.61